Terminal Aerodrome Forecast
Issued by NWS

Home | Current Version | Previous Version | Text Only | Print | Product List | Glossary On
Versions: 1 2 3 4 5 6 7 8 9 10 11 12
000
FTUS44 KEPZ 282300 RRA
TAFDMN
TAF
KDMN 282342Z 2900/2924 24009KT P6SM FEW100
     FM290300 32006KT P6SM SKC
     FM291600 05007KT P6SM FEW100=

USA.gov is the U.S. government's official web portal to all federal, state and local government web resources and services.